Latest Weather Observations for Giles*

IDW60801

Issued at 9:33 pm WST Saturday 1 October 2016 (issued every 30 minutes, with the page automatically refreshed every 10 minutes)

About weather observations | Map of weather stations | Latest weather observations for WA | Other Formats
Station Details ID: 013017 Name: GILES METEOROLOGICAL OFFICE Lat: -25.03 Lon: 128.30 Height: 598.0 m
Data from the previous 72 hours. | See also: Recent months at Giles*

* Giles observations are collected in the South Australia time zone, which includes daylight saving in the summer period. Therefore, Rain since 9am value is with respect to South Australia local time.

Date/Time
WST
Temp
°C
App
Temp
°C
Dew
Point
°C
Rel
Hum
%
Delta-T
°C
Wind Press
QNH
hPa
Press
MSL
hPa
Rain since
9am
mm
Dir  Spd
km/h
Gust
km/h
Spd
kts
Gust
kts
01/09:30pm 20.1 17.0 16.6 80 2.2 NW 28 43 15 23 1008.1 1004.6 0.6
01/09:00pm 20.3 17.5 16.4 78 2.4 NNW 26 41 14 22 1008.0 1004.5 0.6
01/08:30pm 20.5 17.4 16.5 78 2.5 NNW 28 41 15 22 1008.0 1004.5 0.6
01/08:00pm 20.5 17.6 17.0 80 2.2 NNW 28 37 15 20 1007.8 1004.3 0.6
01/07:30pm 20.7 17.5 17.2 80 2.2 NNW 30 43 16 23 1007.6 1004.1 0.6
01/07:00pm 20.3 17.4 17.1 82 2.0 NNW 28 37 15 20 1007.4 1003.8 0.6
01/06:30pm 20.8 17.3 16.5 76 2.7 N 30 43 16 23 1007.1 1003.5 0.6
01/06:00pm 22.0 17.0 15.1 65 4.2 N 35 50 19 27 1006.8 1003.2 0.6
01/05:30pm 22.2 18.4 15.7 66 4.0 NNW 30 39 16 21 1006.3 1002.8 0.6
01/05:00pm 22.4 19.1 16.0 67 4.0 NNW 28 41 15 22 1006.1 1002.6 0.6
01/04:42pm 21.9 18.1 16.6 72 3.3 NNW 32 50 17 27 1006.1 1002.6 0.6
01/04:30pm 23.3 18.8 15.5 61 4.8 NNW 33 50 18 27 1006.3 1002.8 0.6
01/04:26pm 23.3 19.4 15.5 61 4.8 NNW 30 50 16 27 1006.4 1002.9 0.6
01/04:00pm 22.2 21.1 17.8 76 2.8 NNW 20 28 11 15 1006.3 1002.8 0.6
01/03:30pm 22.3 16.8 17.6 75 3.0 N 43 61 23 33 1006.0 1002.5 0.2
01/03:26pm 23.6 18.0 16.6 65 4.4 NNW 41 61 22 33 1005.9 1002.3 0.2
01/03:23pm 25.0 20.0 15.1 54 6.1 NNW 35 50 19 27 1005.8 1002.2 0.2
01/03:22pm 25.1 20.0 14.9 53 6.3 NNW 35 50 19 27 1005.7 1002.1 0.2
01/03:00pm 24.0 22.6 16.9 64 4.5 NW 20 30 11 16 1005.9 1002.3 0.2
01/02:47pm 22.1 17.3 16.5 70 3.5 NNW 37 61 20 33 1006.3 1002.8 0.2
01/02:44pm 27.2 20.5 10.9 36 9.5 NNW 37 56 20 30 1005.9 1002.3 0.0
01/02:30pm 28.4 22.2 10.1 32 10.6 NW 33 48 18 26 1005.9 1002.3 0.0
01/02:02pm 27.9 22.0 10.5 33 10.1 NNW 32 54 17 29 1006.2 1002.7 0.0
01/02:00pm 27.9 22.1 10.8 34 10.0 NW 32 44 17 24 1006.4 1002.9 0.0
01/01:30pm 28.1 22.2 10.3 33 10.3 NNW 32 44 17 24 1006.5 1003.0 0.0
01/01:00pm 28.2 21.6 8.5 29 11.1 NNW 33 63 18 34 1006.9 1003.3 0.0
01/12:38pm 29.4 22.0 6.9 24 12.4 NW 35 54 19 29 1007.2 1003.6 0.0
01/12:30pm 28.9 21.2 6.9 25 12.1 NW 37 54 20 29 1007.4 1003.8 0.0
01/12:20pm 29.6 22.6 6.1 22 12.8 NNW 32 57 17 31 1007.5 1004.0 0.0
01/12:00pm 29.0 21.6 6.8 24 12.2 NNW 35 48 19 26 1007.9 1004.4 0.0
01/11:49am 27.6 20.7 6.4 26 11.5 NNW 32 50 17 27 1008.1 1004.6 0.0
01/11:30am 28.6 20.4 4.5 21 12.7 NNW 37 50 20 27 1008.5 1004.9 0.0
01/11:00am 28.0 19.9 -3.1 13 14.3 NNW 30 48 16 26 1009.1 1005.6 0.0
01/10:30am 27.4 18.7 -9.8 8 15.1 NNW 30 41 16 22 1009.8 1006.3 0.0
01/10:00am 27.0 17.1 -13.2 6 15.3 NNW 35 44 19 24 1010.2 1006.6 0.0
01/09:30am 26.0 17.1 -12.7 7 14.7 NNW 30 43 16 23 1010.8 1007.3 0.0
01/09:00am 25.4 16.6 -18.0 5 14.9 N 28 37 15 20 1011.0 1007.5 0.0
01/08:30am 23.6 14.9 -15.1 6 13.7 N 28 33 15 18 1011.0 1007.5 0.0
01/08:00am 24.7 15.0 -20.2 4 14.7 N 32 43 17 23 1010.6 1007.1 0.0
01/07:30am 24.7 15.8 -20.2 4 14.7 N 28 37 15 20 1010.8 1008.3 0.0
01/07:00am 23.7 16.0 -19.0 5 14.1 N 22 30 12 16 1010.7 1008.2 0.0
01/06:30am 22.0 15.3 -16.2 6 13.0 NNW 17 24 9 13 1010.8 1008.3 0.0
01/06:00am 21.5 14.8 -17.9 6 12.9 N 17 22 9 12 1010.3 1007.7 0.0
01/05:30am 19.3 13.0 -16.5 7 11.7 NNW 15 19 8 10 1010.2 1007.6 0.0
01/05:00am 19.9 13.2 -17.7 6 12.1 N 17 22 9 12 1009.9 1007.4 0.0
01/04:30am 18.0 12.0 -17.8 7 11.2 N 13 20 7 11 1009.8 1007.3 0.0
01/04:00am 16.0 10.2 -15.1 10 10.0 NNW 13 20 7 11 1009.7 1007.2 0.0
01/03:30am 15.4 10.0 -13.3 12 9.5 NNW 11 15 6 8 1009.5 1007.0 0.0
01/03:00am 14.9 10.5 -10.7 16 8.9 NNW 7 11 4 6 1009.5 1007.0 0.0
01/02:30am 15.3 11.7 -7.8 19 8.6 N 4 7 2 4 1009.6 1007.1 0.0
01/02:00am 15.3 12.2 -10.2 16 9.0 CALM 0 0 0 0 1009.9 1007.4 0.0
01/01:30am 15.4 12.4 -9.9 16 9.0 CALM 0 0 0 0 1010.3 1007.7 0.0
01/01:00am 16.2 13.3 -8.3 18 9.1 CALM 0 0 0 0 1010.4 1007.9 0.0
01/12:30am 15.6 12.4 -12.6 13 9.5 CALM 0 0 0 0 1010.6 1008.1 0.0
01/12:00am 16.5 13.5 -9.2 16 9.4 CALM 0 0 0 0 1010.7 1008.2 0.0
 
Date/Time
WST
Temp
°C
App
Temp
°C
Dew
Point
°C
Rel
Hum
%
Delta-T
°C
Wind Press
QNH
hPa
Press
MSL
hPa
Rain since
9am
mm
Dir  Spd
km/h
Gust
km/h
Spd
kts
Gust
kts
30/11:30pm 17.0 13.4 -12.2 12 10.1 NNE 2 6 1 3 1010.9 1008.4 0.0
30/11:00pm 18.9 14.5 -10.0 13 10.7 NNE 7 9 4 5 1011.0 1008.5 0.0
30/10:30pm 19.0 14.1 -11.8 11 11.0 NE 9 9 5 5 1011.3 1008.8 0.0
30/10:00pm 19.0 16.0 -9.1 14 10.6 CALM 0 0 0 0 1011.5 1009.0 0.0
30/09:30pm 20.0 17.1 -8.5 14 11.0 CALM 0 6 0 3 1011.8 1009.4 0.0
30/09:00pm 20.2 15.8 -12.7 10 11.7 N 6 7 3 4 1011.8 1009.4 0.0
30/08:30pm 19.7 15.2 -11.5 11 11.3 N 7 9 4 5 1012.1 1009.6 0.0
30/08:00pm 19.0 13.9 -15.1 9 11.4 N 9 11 5 6 1012.1 1009.6 0.0
30/07:30pm 18.0 12.9 -15.9 8 11.0 NNW 9 11 5 6 1011.8 1009.4 0.0
30/07:00pm 19.4 13.5 -17.2 7 11.8 WNW 13 15 7 8 1011.5 1009.0 0.0
30/06:30pm 19.6 14.4 -11.1 11 11.2 W 11 15 6 8 1011.2 1008.7 0.0
30/06:00pm 21.2 15.9 -12.6 9 12.2 W 11 13 6 7 1010.9 1008.4 0.0
30/05:30pm 22.5 16.9 -19.1 5 13.5 WNW 11 13 6 7 1010.4 1007.9 0.0
30/05:00pm 24.6 18.8 -22.6 3 14.8 WNW 11 19 6 10 1010.3 1007.7 0.0
30/04:30pm 25.2 18.5 -32.7 1 15.5 NW 15 20 8 11 1010.2 1007.6 0.0
30/04:00pm 25.6 18.5 -32.4 1 15.7 NNW 17 26 9 14 1009.8 1007.3 0.0
30/03:30pm 25.9 18.4 -34.3 1 15.9 NW 19 26 10 14 1009.7 1007.2 0.0
30/03:00pm 25.8 18.8 -26.3 2 15.6 WNW 17 30 9 16 1010.2 1007.6 0.0
30/02:30pm 26.0 18.9 -37.2 1 16.0 W 17 30 9 16 1010.5 1008.0 0.0
30/02:00pm 25.8 18.3 -32.6 1 15.8 NW 19 30 10 16 1010.9 1008.4 0.0
30/01:30pm 25.6 18.9 -29.3 2 15.6 WNW 15 24 8 13 1011.3 1008.8 0.0
30/01:00pm 24.8 17.9 -22.8 3 14.9 NW 17 26 9 14 1012.2 1009.7 0.0
30/12:30pm 24.3 18.3 -19.1 4 14.4 NW 13 26 7 14 1012.8 1010.3 0.0
30/12:00pm 23.0 17.1 -15.3 7 13.4 NW 13 22 7 12 1013.3 1010.9 0.0
30/11:30am 22.1 16.2 -15.9 7 13.0 WNW 13 24 7 13 1013.9 1011.4 0.0
30/11:00am 21.9 16.2 -12.4 9 12.5 NNW 13 24 7 13 1014.6 1012.1 0.0
30/10:30am 20.7 14.6 -13.2 9 12.0 WNW 15 26 8 14 1015.3 1012.9 0.0
30/10:00am 20.6 15.5 -14.6 8 12.1 WNW 9 20 5 11 1015.8 1013.3 0.0
30/09:30am 19.8 14.1 -12.8 10 11.5 WNW 13 22 7 12 1016.1 1013.6 0.0
30/09:00am 18.5 12.9 -11.6 12 10.7 NW 13 20 7 11 1015.9 1013.4 0.0
30/08:30am 17.8 12.2 -10.5 13 10.2 N 13 20 7 11 1016.3 1013.9 0.0
30/08:00am 18.1 12.2 -9.5 14 10.2 NNW 15 20 8 11 1016.5 1014.1 0.0
30/07:30am 16.7 12.6 -7.1 19 9.1 ENE 7 11 4 6 1016.1 1013.6 0.0
30/07:00am 15.0 9.3 -7.7 20 8.4 E 15 20 8 11 1015.4 1013.0 0.0
30/06:30am 13.3 8.1 -6.6 24 7.4 E 13 19 7 10 1015.6 1013.1 0.0
30/06:00am 11.0 6.2 -6.3 29 6.3 ESE 11 15 6 8 1015.7 1013.2 0.0
30/05:30am 7.3 2.9 -5.7 39 4.6 E 9 13 5 7 1015.6 1013.1 0.0
30/05:00am 5.9 0.2 -7.3 38 4.4 E 15 17 8 9 1015.0 1012.6 0.0
30/04:30am 5.5 0.6 -6.7 41 4.1 ESE 11 13 6 7 1014.7 1012.2 0.0
30/04:00am 7.9 2.2 -7.3 33 5.2 E 15 17 8 9 1014.2 1011.7 0.0
30/03:30am 8.4 2.7 -7.7 31 5.5 E 15 17 8 9 1014.0 1011.5 0.0
30/03:00am 8.8 3.1 -7.4 31 5.6 E 15 17 8 9 1014.2 1011.7 0.0
30/02:30am 8.9 3.6 -7.2 31 5.6 E 13 15 7 8 1014.5 1012.0 0.0
30/02:00am 9.0 3.7 -7.5 30 5.7 ESE 13 15 7 8 1014.5 1012.0 0.0
30/01:30am 8.9 3.6 -7.7 30 5.7 E 13 13 7 7 1014.8 1012.4 0.0
30/01:00am 8.8 3.4 -8.4 29 5.8 ESE 13 17 7 9 1014.8 1012.4 0.0
30/12:30am 9.0 3.6 -8.5 28 5.9 SE 13 15 7 8 1015.0 1012.6 0.0
30/12:00am 9.1 4.1 -7.8 29 5.8 ESE 11 13 6 7 1015.3 1012.9 0.0
 
Date/Time
WST
Temp
°C
App
Temp
°C
Dew
Point
°C
Rel
Hum
%
Delta-T
°C
Wind Press
QNH
hPa
Press
MSL
hPa
Rain since
9am
mm
Dir  Spd
km/h
Gust
km/h
Spd
kts
Gust
kts
29/11:30pm 9.8 4.8 -8.3 27 6.2 ESE 11 13 6 7 1015.8 1013.3 0.0
29/11:00pm 10.2 5.6 -7.9 27 6.3 ESE 9 11 5 6 1016.1 1013.6 0.0
29/10:30pm 10.3 5.6 -8.8 25 6.5 ESE 9 11 5 6 1016.2 1013.7 0.0
29/10:00pm 10.2 6.5 -8.5 26 6.4 ESE 4 6 2 3 1016.4 1014.0 0.0
29/09:30pm 10.4 5.9 -7.0 29 6.2 SSE 9 9 5 5 1016.6 1014.2 0.0
29/09:00pm 11.0 5.9 -9.3 23 6.9 SSE 11 13 6 7 1016.5 1014.1 0.0
29/08:30pm 11.8 6.6 -10.8 19 7.5 SSE 11 15 6 8 1016.6 1014.2 0.0
29/08:00pm 12.7 7.0 -12.2 16 8.1 S 13 15 7 8 1016.8 1014.4 0.0
29/07:30pm 13.2 7.5 -12.7 15 8.4 S 13 15 7 8 1016.7 1014.3 0.0
29/07:00pm 13.8 8.1 -12.9 14 8.7 S 13 15 7 8 1016.3 1013.9 0.0
29/06:30pm 14.5 8.7 -13.6 13 9.1 S 13 15 7 8 1015.7 1013.2 0.0
29/06:00pm 16.0 10.6 -14.5 11 9.9 S 11 13 6 7 1015.1 1012.7 0.0
29/05:30pm 17.3 11.5 -14.5 10 10.5 S 13 15 7 8 1014.8 1012.4 0.0
29/05:00pm 19.3 13.4 -16.8 7 11.7 S 13 20 7 11 1014.7 1012.2 0.0
29/04:30pm 20.2 13.0 -20.0 5 12.4 S 19 24 10 13 1014.7 1012.2 0.0
29/04:00pm 20.7 14.0 -18.1 6 12.5 SSW 17 24 9 13 1014.6 1012.1 0.0
29/03:30pm 20.7 14.3 -18.2 6 12.5 SSW 15 24 8 13 1014.9 1012.5 0.0
29/03:00pm 20.7 13.5 -19.4 5 12.6 SSW 19 28 10 15 1015.0 1012.6 0.0
29/02:30pm 20.2 13.5 -16.5 7 12.1 S 17 33 9 18 1015.2 1012.8 0.0
29/02:00pm 20.3 13.8 -14.1 9 11.9 SSW 17 24 9 13 1015.7 1013.2 0.0
29/01:30pm 20.1 13.9 -14.1 9 11.8 S 15 24 8 13 1015.8 1013.3 0.0
29/01:00pm 19.3 12.9 -12.4 10 11.2 S 17 28 9 15 1016.2 1013.7 0.0
29/12:30pm 17.7 11.3 -11.5 12 10.3 SSW 17 28 9 15 1016.5 1014.1 0.0
29/12:00pm 17.1 10.8 -10.7 14 9.9 SSE 17 32 9 17 1016.9 1014.5 0.0
29/11:30am 16.2 9.3 -10.9 14 9.5 S 20 28 11 15 1017.6 1015.1 0.0
29/11:00am 16.2 9.7 -8.5 17 9.1 S 19 30 10 16 1018.0 1015.6 0.0
29/10:30am 14.6 8.1 -8.2 20 8.3 SSE 19 30 10 16 1018.7 1016.3 0.0
29/10:00am 13.9 6.9 -6.8 23 7.7 S 22 32 12 17 1019.1 1016.6 0.0
29/09:30am 12.9 5.5 -7.1 24 7.3 SSE 24 35 13 19 1019.6 1017.2 0.0
29/09:00am 11.9 4.9 -6.8 26 6.8 S 22 33 12 18 1019.9 1017.5 0.0
29/08:30am 11.3 4.0 -6.2 29 6.4 S 24 46 13 25 1019.8 1017.4 0.0
29/08:00am 10.0 1.6 -5.6 33 5.7 SSE 30 39 16 21 1019.9 1017.5 0.0
29/07:30am 9.9 1.0 -4.9 35 5.5 SSE 33 44 18 24 1019.5 1017.1 0.0
29/07:00am 8.9 -0.4 -5.1 37 5.1 SSE 35 44 19 24 1019.4 1017.0 0.0
29/06:30am 8.3 -0.4 -4.9 39 4.8 SSE 32 44 17 24 1018.9 1016.5 0.0
29/06:14am 8.0 -0.3 -5.0 39 4.7 SSE 30 48 16 26 1018.8 1016.4 0.0
29/06:00am 7.6 0.3 -6.1 37 4.8 SSE 24 32 13 17 1018.7 1016.3 0.0
29/05:30am 6.2 -0.2 -6.8 39 4.4 SSE 19 26 10 14 1018.4 1016.0 0.0
29/05:00am 6.4 -0.1 -7.8 35 4.7 SSE 19 26 10 14 1018.3 1015.9 0.0
29/04:30am 5.1 -1.0 -8.3 37 4.3 S 17 22 9 12 1017.8 1015.4 0.0
29/04:00am 4.6 -0.7 -7.8 40 4.0 SSE 13 15 7 8 1017.5 1015.0 0.0
29/03:30am 5.0 -0.3 -7.6 39 4.1 SSE 13 15 7 8 1017.1 1014.7 0.0
29/03:00am 5.5 0.2 -7.6 38 4.3 SSE 13 13 7 7 1016.9 1014.5 0.0
29/02:30am 6.0 0.6 -8.1 35 4.6 SSE 13 15 7 8 1016.8 1014.4 0.0
29/02:00am 7.2 1.8 -8.7 31 5.2 S 13 17 7 9 1016.9 1014.5 0.0
29/01:30am 7.6 2.2 -8.4 31 5.3 S 13 15 7 8 1016.8 1014.4 0.0
29/01:00am 8.6 2.7 -9.4 27 5.9 S 15 19 8 10 1016.7 1014.3 0.0
29/12:30am 9.4 3.6 -9.2 26 6.2 S 15 17 8 9 1016.9 1014.5 0.0
29/12:00am 9.9 4.4 -9.1 25 6.4 S 13 17 7 9 1017.0 1014.6 0.0
 
Date/Time
WST
Temp
°C
App
Temp
°C
Dew
Point
°C
Rel
Hum
%
Delta-T
°C
Wind Press
QNH
hPa
Press
MSL
hPa
Rain since
9am
mm
Dir  Spd
km/h
Gust
km/h
Spd
kts
Gust
kts
28/11:30pm 10.9 5.0 -9.6 23 6.9 S 15 19 8 10 1017.3 1014.8 0.0
28/11:00pm 11.7 5.8 -9.9 21 7.3 S 15 20 8 11 1017.3 1014.8 0.0
28/10:30pm 12.6 6.6 -11.1 18 7.9 SSW 15 19 8 10 1017.1 1014.7 0.0
28/10:00pm 13.6 6.8 -12.2 15 8.5 SSW 19 28 10 15 1017.3 1014.8 0.0
28/09:30pm 13.6 6.8 -12.2 15 8.5 S 19 28 10 15 1017.1 1014.7 0.0
28/09:00pm 14.4 7.9 -12.5 14 8.9 SSW 17 22 9 12 1016.9 1014.5 0.0
28/08:30pm 15.3 8.4 -13.1 13 9.4 SSW 19 24 10 13 1016.8 1014.4 0.0

Other Formats:

Comma delimited format used in spreadsheet applications
http://www.bom.gov.au/fwo/IDW60801/IDW60801.94461.axf

JavaScript Object Notation format (JSON) in row-major order
http://www.bom.gov.au/fwo/IDW60801/IDW60801.94461.json